Time;durP1;ratioP1;P1;durP2;ratioP2;P2;SDS_P1;SDS_P2;PMS_P1;PMS_P2;Temp;Humidity;BMP_temperature;BMP_pressure;BME280_temperature;BME280_humidity;BME280_pressure;Samples;Min_cycle;Max_cycle;Signal;HPM_P1;HPM_P2
2023/08/30 00:02:20;;;;;;;6.53;2.70;;;17.50;68.40;;;;;;6277211;22;20510;-76
2023/08/30 00:04:47;;;;;;;3.90;2.50;;;17.60;67.40;;;;;;6275601;22;20035;-76
2023/08/30 00:07:14;;;;;;;4.78;2.42;;;17.60;66.70;;;;;;6275930;22;20438;-76
2023/08/30 00:09:41;;;;;;;7.63;2.80;;;17.70;65.90;;;;;;6277301;22;20004;-76
2023/08/30 00:12:09;;;;;;;4.35;2.50;;;17.70;65.90;;;;;;6277249;22;20003;-76
2023/08/30 00:14:36;;;;;;;5.07;2.50;;;17.80;65.40;;;;;;6277116;22;19996;-76
2023/08/30 00:17:03;;;;;;;4.45;2.70;;;17.80;65.20;;;;;;6275770;22;20004;-76
2023/08/30 00:19:31;;;;;;;5.30;2.38;;;18.00;64.80;;;;;;6276782;22;19996;-76
2023/08/30 00:21:58;;;;;;;4.68;2.30;;;18.10;64.80;;;;;;6277081;22;20076;-76
2023/08/30 00:24:25;;;;;;;11.20;2.97;;;18.10;64.50;;;;;;6275840;22;20015;-75
2023/08/30 00:26:52;;;;;;;15.35;3.60;;;18.20;64.10;;;;;;6277034;22;20004;-75
2023/08/30 00:29:20;;;;;;;19.38;4.47;;;18.30;64.80;;;;;;6276851;22;19999;-75
2023/08/30 00:31:47;;;;;;;17.40;3.95;;;18.30;65.10;;;;;;6276854;22;20000;-75
2023/08/30 00:34:14;;;;;;;13.20;3.25;;;18.40;63.50;;;;;;6275497;22;20003;-75
2023/08/30 00:36:41;;;;;;;14.35;3.60;;;18.50;63.20;;;;;;6277017;22;19999;-75
2023/08/30 00:39:08;;;;;;;7.43;2.85;;;18.60;63.20;;;;;;6275891;22;20007;-75
2023/08/30 00:41:36;;;;;;;6.22;2.92;;;18.70;62.00;;;;;;6276909;22;20000;-75
2023/08/30 00:44:03;;;;;;;7.63;2.80;;;18.70;61.90;;;;;;6276562;22;20007;-75
2023/08/30 00:46:31;;;;;;;10.65;2.67;;;18.80;61.90;;;;;;6276296;22;20000;-74
2023/08/30 00:48:59;;;;;;;4.68;2.33;;;18.80;61.10;;;;;;6276531;22;20004;-76
2023/08/30 00:51:27;;;;;;;4.15;2.20;;;18.90;61.20;;;;;;6275033;22;20026;-76
2023/08/30 00:53:55;;;;;;;6.22;2.50;;;19.00;59.80;;;;;;6276695;22;20000;-75
2023/08/30 00:56:22;;;;;;;7.00;2.13;;;19.10;59.40;;;;;;6275054;22;20029;-75
2023/08/30 00:58:50;;;;;;;3.78;2.10;;;19.20;58.00;;;;;;6275320;22;20007;-75
2023/08/30 01:01:18;;;;;;;3.88;2.30;;;19.30;58.30;;;;;;6249937;22;20003;-75
2023/08/30 01:03:45;;;;;;;6.05;2.13;;;19.30;58.10;;;;;;6275511;22;20000;-76
2023/08/30 01:06:13;;;;;;;5.18;2.00;;;19.30;57.00;;;;;;6276870;22;20081;-76
2023/08/30 01:08:42;;;;;;;3.17;2.28;;;19.40;57.00;;;;;;6276640;22;20052;-75
2023/08/30 01:11:15;;;;;;;6.80;2.45;;;19.50;56.50;;;;;;6275188;22;20015;-76
2023/08/30 01:13:54;;;;;;;2.17;1.70;;;19.50;56.10;;;;;;6276697;22;20006;-75
2023/08/30 01:16:23;;;;;;;2.00;1.70;;;19.60;56.10;;;;;;6275499;22;20074;-76
2023/08/30 01:18:51;;;;;;;2.88;2.22;;;19.70;54.40;;;;;;6275114;22;20383;-78
2023/08/30 01:21:42;;;;;;;2.72;1.80;;;19.70;56.40;;;;;;6275271;22;20106;-76
2023/08/30 01:24:10;;;;;;;2.88;2.10;;;19.80;55.40;;;;;;6274622;22;20015;-77
2023/08/30 01:26:48;;;;;;;3.00;1.80;;;20.00;54.40;;;;;;6276006;22;20334;-77
2023/08/30 01:29:15;;;;;;;3.63;1.90;;;20.10;54.10;;;;;;6274848;22;20015;-77
2023/08/30 01:31:43;;;;;;;4.72;1.90;;;20.20;54.40;;;;;;6247698;22;20139;-77
2023/08/30 01:34:10;;;;;;;5.88;1.90;;;20.30;53.70;;;;;;6249153;22;20347;-77
2023/08/30 01:36:37;;;;;;;2.75;1.60;;;20.30;51.80;;;;;;6274475;22;20083;-77
2023/08/30 01:39:04;;;;;;;3.97;1.92;;;20.40;51.60;;;;;;6274050;22;20054;-77
2023/08/30 01:41:32;;;;;;;2.00;1.60;;;20.40;51.20;;;;;;6273953;22;20000;-76
2023/08/30 01:44:03;;;;;;;10.07;2.08;;;20.40;50.80;;;;;;6223298;22;20011;-77
2023/08/30 01:46:31;;;;;;;3.08;1.90;;;20.50;51.30;;;;;;6273609;22;20018;-77
2023/08/30 01:48:58;;;;;;;2.67;1.92;;;20.60;51.80;;;;;;6273341;22;19996;-77
2023/08/30 01:51:25;;;;;;;2.33;1.60;;;20.70;52.20;;;;;;6272872;22;20020;-77
2023/08/30 01:53:53;;;;;;;4.35;1.77;;;20.70;51.80;;;;;;6247871;22;20482;-77
2023/08/30 01:56:20;;;;;;;2.28;1.50;;;20.70;51.90;;;;;;6247974;22;19999;-78
2023/08/30 01:58:47;;;;;;;5.13;1.48;;;20.70;50.70;;;;;;6248202;22;20003;-75
2023/08/30 02:01:14;;;;;;;1.88;1.38;;;20.80;50.00;;;;;;6273908;22;20004;-75
2023/08/30 02:03:45;;;;;;;3.20;1.88;;;20.80;49.30;;;;;;6272808;22;20074;-75
2023/08/30 02:06:33;;;;;;;3.00;1.70;;;20.80;49.50;;;;;;6272969;22;20031;-74
2023/08/30 02:09:04;;;;;;;3.15;1.40;;;20.80;50.00;;;;;;6274825;22;20007;-74
2023/08/30 02:11:33;;;;;;;3.65;1.48;;;20.80;50.10;;;;;;6271513;22;20435;-77
2023/08/30 02:14:00;;;;;;;3.60;1.55;;;20.80;50.30;;;;;;6270230;22;20083;-77
2023/08/30 02:16:27;;;;;;;4.00;1.77;;;20.80;49.80;;;;;;6245136;22;20007;-77
2023/08/30 02:18:55;;;;;;;2.65;1.75;;;20.80;49.50;;;;;;6270634;22;20450;-77
2023/08/30 02:21:22;;;;;;;2.35;1.58;;;20.80;50.00;;;;;;6245390;22;20091;-77
2023/08/30 02:23:52;;;;;;;3.75;1.65;;;20.80;50.10;;;;;;6271941;22;20490;-77
2023/08/30 02:26:19;;;;;;;;;;;20.80;50.30;;;;;;6271095;22;20035;-79
2023/08/30 02:28:47;;;;;;;1.88;1.58;;;20.90;50.50;;;;;;6268334;22;20259;-78
2023/08/30 02:31:14;;;;;;;3.28;1.77;;;20.90;49.80;;;;;;6272207;22;19999;-78
2023/08/30 02:33:41;;;;;;;1.63;1.50;;;21.00;49.70;;;;;;6272460;22;20431;-79
2023/08/30 02:36:08;;;;;;;3.45;1.80;;;21.00;49.80;;;;;;6272098;22;19999;-79
2023/08/30 02:38:36;;;;;;;5.15;1.75;;;21.10;49.90;;;;;;6271804;22;20011;-78
2023/08/30 02:41:03;;;;;;;2.78;1.50;;;21.10;49.70;;;;;;6271044;22;20008;-76
2023/08/30 02:43:30;;;;;;;6.35;1.60;;;21.30;49.80;;;;;;6244142;22;19999;-75
2023/08/30 02:45:57;;;;;;;2.78;1.48;;;21.30;50.40;;;;;;6270504;22;20040;-77
2023/08/30 02:48:24;;;;;;;1.83;1.40;;;21.30;48.90;;;;;;6270692;22;20542;-77
2023/08/30 02:50:52;;;;;;;2.63;1.60;;;21.40;48.60;;;;;;6270919;22;20403;-76
2023/08/30 02:53:19;;;;;;;3.17;1.80;;;21.40;48.20;;;;;;6272127;22;20311;-68
2023/08/30 02:55:50;;;;;;;3.22;1.63;;;21.50;48.20;;;;;;6271420;22;20008;-69
2023/08/30 02:58:17;;;;;;;15.75;3.03;;;21.40;48.10;;;;;;6269985;22;20027;-69
2023/08/30 03:00:45;;;;;;;4.32;1.98;;;21.50;49.00;;;;;;6271303;22;20014;-68
2023/08/30 03:03:12;;;;;;;7.20;1.90;;;21.50;48.60;;;;;;6269747;22;20029;-68
2023/08/30 03:05:40;;;;;;;2.38;1.40;;;21.50;47.60;;;;;;6270425;22;20023;-69
2023/08/30 03:08:07;;;;;;;2.17;1.40;;;21.50;47.50;;;;;;6271668;22;20026;-69
2023/08/30 03:10:34;;;;;;;2.38;1.38;;;21.50;47.50;;;;;;6271408;22;20014;-69
2023/08/30 03:13:01;;;;;;;2.13;1.60;;;21.50;46.70;;;;;;6271273;22;20457;-69
2023/08/30 03:15:31;;;;;;;4.85;2.15;;;21.50;46.90;;;;;;6271806;22;20010;-68
2023/08/30 03:17:58;;;;;;;1.90;1.40;;;21.60;47.60;;;;;;6271826;22;20081;-70
2023/08/30 03:20:25;;;;;;;4.43;1.70;;;21.70;46.60;;;;;;6272370;22;19995;-70
2023/08/30 03:22:52;;;;;;;3.20;1.80;;;21.70;45.60;;;;;;6271422;22;20016;-69
2023/08/30 03:25:20;;;;;;;2.63;1.50;;;21.70;45.50;;;;;;6272217;22;20026;-69
2023/08/30 03:27:47;;;;;;;2.20;1.60;;;21.80;45.80;;;;;;6269616;22;20008;-69
2023/08/30 03:30:14;;;;;;;2.35;1.23;;;21.80;47.10;;;;;;6269619;22;20018;-68
2023/08/30 03:32:42;;;;;;;5.03;1.70;;;21.90;45.70;;;;;;6271279;22;20007;-69
2023/08/30 03:35:09;;;;;;;3.28;1.80;;;21.90;44.90;;;;;;6271598;22;20383;-68
2023/08/30 03:50:40;;;;;;;2.97;1.40;;;22.20;43.10;;;;;;6327359;22;20100;-68
2023/08/30 03:53:08;;;;;;;2.85;1.50;;;22.10;43.40;;;;;;6302871;22;20030;-68
2023/08/30 03:55:35;;;;;;;2.08;1.50;;;22.20;43.50;;;;;;6302640;22;20003;-68
2023/08/30 03:58:03;;;;;;;2.35;1.30;;;22.10;42.30;;;;;;6301506;22;20010;-68
2023/08/30 04:00:30;;;;;;;19.15;2.67;;;22.00;42.80;;;;;;6302029;22;20003;-68
2023/08/30 04:02:57;;;;;;;5.90;1.55;;;22.00;43.30;;;;;;6302953;22;20007;-69
2023/08/30 04:05:25;;;;;;;1.80;1.30;;;22.00;43.10;;;;;;6304307;22;20019;-68
2023/08/30 04:07:52;;;;;;;1.17;1.08;;;22.00;42.50;;;;;;6304571;22;19999;-68
2023/08/30 04:10:20;;;;;;;2.05;1.38;;;22.00;41.80;;;;;;6304317;22;20449;-68
2023/08/30 04:12:47;;;;;;;3.97;1.60;;;22.00;42.10;;;;;;6277343;22;20022;-68
2023/08/30 04:15:15;;;;;;;3.72;1.40;;;21.90;42.60;;;;;;6304727;22;20330;-68
2023/08/30 04:17:42;;;;;;;1.33;1.23;;;22.00;42.30;;;;;;6304457;22;20430;-68
2023/08/30 04:20:12;;;;;;;2.00;1.50;;;22.00;42.60;;;;;;6304697;22;20010;-67
2023/08/30 04:22:40;;;;;;;1.95;1.27;;;22.00;42.00;;;;;;6304762;22;20082;-68
2023/08/30 04:25:09;;;;;;;2.45;1.42;;;22.00;42.00;;;;;;6304224;22;20400;-68
2023/08/30 04:27:36;;;;;;;2.23;1.53;;;22.00;42.40;;;;;;6302041;22;20073;-68
2023/08/30 04:30:04;;;;;;;7.47;1.85;;;22.00;44.30;;;;;;6304377;22;20013;-68
2023/08/30 04:32:31;;;;;;;7.28;2.80;;;22.00;44.60;;;;;;6304675;22;19996;-69
2023/08/30 04:34:58;;;;;;;13.00;3.45;;;21.90;50.30;;;;;;6304243;22;20033;-70
2023/08/30 04:37:29;;;;;;;14.20;3.72;;;21.80;53.00;;;;;;6304821;22;20003;-69
2023/08/30 04:39:56;;;;;;;7.30;2.85;;;21.70;54.20;;;;;;6277113;22;20011;-68
2023/08/30 04:42:24;;;;;;;10.02;3.65;;;21.60;55.20;;;;;;6304949;22;20073;-69
2023/08/30 04:44:55;;;;;;;21.35;4.28;;;21.50;56.20;;;;;;6305095;22;20346;-69
2023/08/30 04:47:23;;;;;;;19.15;4.40;;;21.40;57.70;;;;;;6304291;22;20003;-68
2023/08/30 04:49:53;;;;;;;18.70;4.55;;;21.30;57.60;;;;;;6304013;22;20068;-69
2023/08/30 05:20:43;;;;;;;11.10;3.10;;;20.70;63.70;;;;;;6302059;22;20361;-69
2023/08/30 05:23:10;;;;;;;11.63;3.55;;;20.50;67.70;;;;;;6333334;22;20090;-77
2023/08/30 05:25:38;;;;;;;7.40;3.00;;;20.40;67.60;;;;;;6306746;22;20092;-78
2023/08/30 05:28:05;;;;;;;12.02;3.67;;;20.30;68.20;;;;;;6304321;22;20076;-78
2023/08/30 05:30:32;;;;;;;6.55;3.03;;;20.30;68.60;;;;;;6308436;22;20003;-75
2023/08/30 05:32:59;;;;;;;9.43;3.15;;;20.20;68.20;;;;;;6307923;22;20003;-77
2023/08/30 05:35:27;;;;;;;9.68;3.55;;;20.20;69.50;;;;;;6306667;22;20307;-76
2023/08/30 05:37:54;;;;;;;8.27;3.00;;;20.20;68.10;;;;;;6335581;22;20052;-77
2023/08/30 05:40:21;;;;;;;6.20;2.40;;;20.20;68.00;;;;;;6307564;22;20474;-77
2023/08/30 05:42:50;;;;;;;6.22;2.60;;;20.10;67.40;;;;;;6334425;22;19999;-76
2023/08/30 05:45:17;;;;;;;4.88;2.42;;;20.20;65.00;;;;;;6308195;22;20033;-74
2023/08/30 05:47:44;;;;;;;6.00;2.70;;;20.20;64.90;;;;;;6307099;22;20006;-75
2023/08/30 05:50:11;;;;;;;9.40;3.00;;;20.20;64.70;;;;;;6334513;22;20009;-75
2023/08/30 05:52:44;;;;;;;22.23;3.92;;;20.20;68.90;;;;;;6306981;22;20348;-75
2023/08/30 05:55:11;;;;;;;27.70;5.90;;;19.90;74.00;;;;;;6335269;22;20003;-75
2023/08/30 05:57:38;;;;;;;27.67;5.40;;;19.50;81.70;;;;;;6334647;22;19999;-72
2023/08/30 06:00:08;;;;;;;25.98;5.13;;;19.00;83.60;;;;;;6334209;22;20033;-73
2023/08/30 06:02:35;;;;;;;13.32;4.50;;;18.70;85.00;;;;;;6334698;22;19994;-72
2023/08/30 06:05:03;;;;;;;9.43;4.00;;;18.30;86.70;;;;;;6334253;22;20022;-72
2023/08/30 06:07:30;;;;;;;11.20;4.10;;;18.20;86.30;;;;;;6332989;22;19999;-75
2023/08/30 06:09:57;;;;;;;15.63;4.82;;;18.00;87.30;;;;;;6333126;22;20006;-71
2023/08/30 06:12:25;;;;;;;11.38;3.03;;;18.00;86.70;;;;;;6333680;22;20010;-72
2023/08/30 06:14:53;;;;;;;12.88;3.08;;;17.80;83.80;;;;;;6332879;22;20318;-71
2023/08/30 06:17:20;;;;;;;9.50;2.72;;;17.50;82.10;;;;;;6334137;22;19999;-71
2023/08/30 06:19:47;;;;;;;13.45;3.05;;;17.10;82.80;;;;;;6333788;22;20014;-71
2023/08/30 06:22:15;;;;;;;8.73;2.25;;;16.70;84.60;;;;;;6305388;22;20149;-72
2023/08/30 06:24:42;;;;;;;6.05;2.58;;;16.40;86.20;;;;;;6332893;22;20011;-72
2023/08/30 06:27:09;;;;;;;25.35;5.43;;;16.30;87.80;;;;;;6281117;22;20082;-72
2023/08/30 06:29:36;;;;;;;14.07;3.33;;;16.20;89.40;;;;;;6308436;22;20432;-71
2023/08/30 06:32:04;;;;;;;16.13;4.00;;;16.20;89.70;;;;;;6336463;22;20006;-70
2023/08/30 06:34:31;;;;;;;8.25;2.90;;;16.10;89.50;;;;;;6336500;22;19998;-74
2023/08/30 06:36:59;;;;;;;5.13;2.20;;;16.00;89.90;;;;;;6336236;22;20010;-70
2023/08/30 06:39:26;;;;;;;4.38;2.25;;;15.90;90.00;;;;;;6309144;22;20035;-71
2023/08/30 06:41:53;;;;;;;5.45;2.30;;;15.80;90.40;;;;;;6336895;22;19998;-71
2023/08/30 06:44:21;;;;;;;8.55;2.17;;;15.80;90.10;;;;;;6309507;22;20003;-70
2023/08/30 06:46:48;;;;;;;7.63;2.13;;;15.70;89.80;;;;;;6337564;22;20033;-71
2023/08/30 06:49:16;;;;;;;8.55;2.03;;;15.70;89.90;;;;;;6336397;22;20003;-71
2023/08/30 06:51:43;;;;;;;3.42;1.90;;;15.70;89.80;;;;;;6337260;22;20479;-70
2023/08/30 06:54:11;;;;;;;4.47;1.98;;;15.60;89.90;;;;;;6337226;22;20002;-70
2023/08/30 06:56:38;;;;;;;3.92;1.95;;;15.60;89.10;;;;;;6309906;22;20055;-71
2023/08/30 06:59:05;;;;;;;3.72;1.92;;;15.70;90.20;;;;;;6309777;22;20113;-70
2023/08/30 07:01:32;;;;;;;3.90;2.10;;;15.60;90.30;;;;;;6337394;22;20003;-71
2023/08/30 07:03:59;;;;;;;4.65;1.80;;;15.70;90.90;;;;;;6336786;22;20003;-71
2023/08/30 07:06:30;;;;;;;2.80;1.38;;;15.70;90.70;;;;;;6337254;22;20433;-70
2023/08/30 07:08:58;;;;;;;4.20;1.55;;;15.50;90.00;;;;;;6336650;22;20003;-70
2023/08/30 07:11:25;;;;;;;5.68;1.50;;;15.50;90.20;;;;;;6337182;22;20052;-71
2023/08/30 07:13:52;;;;;;;4.07;1.80;;;15.50;90.20;;;;;;6337158;22;20006;-70
2023/08/30 07:16:19;;;;;;;5.38;1.73;;;15.50;90.20;;;;;;6337457;22;20003;-70
2023/08/30 07:18:46;;;;;;;4.57;1.67;;;15.40;90.00;;;;;;6337485;22;19999;-71
2023/08/30 07:21:14;;;;;;;3.90;1.65;;;15.40;90.00;;;;;;6337205;22;20367;-70
2023/08/30 07:23:41;;;;;;;5.15;1.50;;;15.40;90.40;;;;;;6337848;22;20334;-71
2023/08/30 07:26:08;;;;;;;2.05;1.55;;;15.40;89.80;;;;;;6337317;22;20022;-70
2023/08/30 07:28:35;;;;;;;5.57;1.88;;;15.30;89.40;;;;;;6309626;22;19995;-71
2023/08/30 07:31:05;;;;;;;3.72;1.60;;;15.30;89.60;;;;;;6337138;22;20402;-71
2023/08/30 07:33:33;;;;;;;3.67;1.48;;;15.30;90.00;;;;;;6310333;22;20003;-71
2023/08/30 07:36:00;;;;;;;4.03;1.83;;;15.30;90.70;;;;;;6310833;22;20054;-71
2023/08/30 07:38:27;;;;;;;4.03;1.50;;;15.30;90.40;;;;;;6311142;22;20441;-70
2023/08/30 07:40:54;;;;;;;3.55;1.90;;;15.20;90.90;;;;;;6339320;22;20003;-71
2023/08/30 07:43:22;;;;;;;3.00;1.85;;;15.10;91.40;;;;;;6339694;22;20007;-71
2023/08/30 07:45:49;;;;;;;3.90;1.80;;;15.20;91.30;;;;;;6312169;22;20017;-71
2023/08/30 07:48:16;;;;;;;3.13;1.65;;;15.20;91.20;;;;;;6312245;22;19999;-71
2023/08/30 07:50:43;;;;;;;3.85;1.75;;;15.20;91.10;;;;;;6339488;22;20049;-71
2023/08/30 07:53:11;;;;;;;2.33;1.60;;;15.10;91.20;;;;;;6339668;22;19995;-71
2023/08/30 07:55:38;;;;;;;3.80;1.67;;;15.20;91.20;;;;;;6312108;22;20006;-71
2023/08/30 07:58:05;;;;;;;3.58;1.85;;;15.10;91.20;;;;;;6339427;22;20068;-71
2023/08/30 08:00:32;;;;;;;2.80;2.10;;;15.10;90.80;;;;;;6339789;22;20029;-71
2023/08/30 08:03:00;;;;;;;5.15;1.70;;;15.10;91.10;;;;;;6339383;22;20033;-71
2023/08/30 08:05:27;;;;;;;5.00;2.15;;;15.00;91.20;;;;;;6338894;22;20010;-70
2023/08/30 08:07:54;;;;;;;3.30;1.60;;;15.10;91.80;;;;;;6286221;22;20003;-71
2023/08/30 08:10:22;;;;;;;6.95;2.15;;;15.10;91.70;;;;;;6311976;22;20002;-72
2023/08/30 08:12:49;;;;;;;9.93;3.00;;;15.10;92.40;;;;;;6312153;22;19999;-71
2023/08/30 08:15:16;;;;;;;5.20;2.08;;;15.10;92.30;;;;;;6339429;22;19999;-71
2023/08/30 08:17:43;;;;;;;8.10;2.10;;;15.00;92.40;;;;;;6338921;22;19999;-71
2023/08/30 08:20:11;;;;;;;3.58;1.83;;;15.00;92.60;;;;;;6339310;22;20077;-71
2023/08/30 08:22:38;;;;;;;5.05;2.70;;;15.10;92.80;;;;;;6311959;22;20010;-71
2023/08/30 08:25:06;;;;;;;4.93;2.42;;;15.00;92.50;;;;;;6339371;22;20079;-71
2023/08/30 08:27:33;;;;;;;3.67;2.22;;;15.00;93.10;;;;;;6339451;22;20009;-71
2023/08/30 08:30:00;;;;;;;6.13;2.50;;;15.00;93.10;;;;;;6339032;22;20003;-72
2023/08/30 08:32:27;;;;;;;9.48;2.47;;;15.00;93.00;;;;;;6339265;22;19995;-72
2023/08/30 08:34:55;;;;;;;6.15;2.38;;;15.00;93.20;;;;;;6311507;22;20006;-72
2023/08/30 08:37:22;;;;;;;7.28;2.25;;;15.10;93.30;;;;;;6311700;22;20007;-72
2023/08/30 08:39:50;;;;;;;6.78;2.50;;;15.00;93.50;;;;;;6338794;22;20473;-72
2023/08/30 08:42:19;;;;;;;7.07;2.20;;;15.10;93.50;;;;;;6338632;22;20034;-72
2023/08/30 08:44:53;;;;;;;7.47;2.30;;;15.10;93.40;;;;;;6338941;22;19998;-72
2023/08/30 08:47:21;;;;;;;7.80;2.35;;;15.10;93.40;;;;;;6339028;22;20333;-72
2023/08/30 08:49:48;;;;;;;14.93;3.30;;;15.00;93.50;;;;;;6338087;22;20048;-72
2023/08/30 08:52:16;;;;;;;5.05;2.40;;;15.00;93.70;;;;;;6311480;22;20102;-72
2023/08/30 08:54:43;;;;;;;6.15;2.60;;;15.00;93.90;;;;;;6338690;22;20003;-71
2023/08/30 08:57:10;;;;;;;11.10;3.05;;;15.00;93.80;;;;;;6311510;22;20003;-72
2023/08/30 08:59:38;;;;;;;8.50;2.70;;;15.00;93.80;;;;;;6311693;22;20414;-72
2023/08/30 09:02:05;;;;;;;7.60;2.63;;;15.00;94.00;;;;;;6339147;22;20348;-72
2023/08/30 09:04:32;;;;;;;8.27;2.63;;;15.00;94.10;;;;;;6338645;22;20015;-72
2023/08/30 09:07:00;;;;;;;11.75;2.83;;;15.00;94.20;;;;;;6338337;22;20104;-72
2023/08/30 09:09:27;;;;;;;8.85;2.63;;;15.00;94.20;;;;;;6338460;22;20152;-72
2023/08/30 09:11:54;;;;;;;13.18;3.50;;;15.00;94.10;;;;;;6338952;22;19999;-72
2023/08/30 09:14:22;;;;;;;8.32;2.70;;;15.00;94.20;;;;;;6338992;22;20078;-72
2023/08/30 09:17:00;;;;;;;10.07;3.20;;;15.00;94.20;;;;;;6338983;22;20009;-72
2023/08/30 09:19:27;;;;;;;11.07;3.28;;;14.90;94.30;;;;;;6311905;22;19999;-72
2023/08/30 09:21:58;;;;;;;10.38;3.40;;;15.00;94.40;;;;;;6311416;22;20015;-72
2023/08/30 09:24:26;;;;;;;11.52;3.40;;;14.90;94.30;;;;;;6338908;22;19999;-72
2023/08/30 09:26:54;;;;;;;9.15;2.75;;;14.90;94.50;;;;;;6286215;22;20007;-72
2023/08/30 09:29:23;;;;;;;8.48;3.00;;;14.90;94.50;;;;;;6310913;22;19991;-72
2023/08/30 09:31:56;;;;;;;8.10;3.28;;;14.90;94.60;;;;;;6339344;22;20007;-72
2023/08/30 09:34:25;;;;;;;11.95;3.70;;;14.90;94.80;;;;;;6338769;22;20013;-72
2023/08/30 09:36:52;;;;;;;8.32;3.42;;;14.90;94.80;;;;;;6338660;22;19999;-72
2023/08/30 09:39:20;;;;;;;11.18;3.35;;;14.80;94.80;;;;;;6338472;22;20009;-71
2023/08/30 09:41:48;;;;;;;7.28;2.60;;;14.90;94.90;;;;;;6285843;22;20048;-72
2023/08/30 09:44:17;;;;;;;9.25;2.40;;;14.80;94.50;;;;;;6311128;22;20377;-72
2023/08/30 09:46:45;;;;;;;8.48;2.33;;;14.70;93.80;;;;;;6310717;22;20002;-72
2023/08/30 09:49:13;;;;;;;6.97;2.15;;;14.70;94.10;;;;;;6310873;22;20014;-71
2023/08/30 09:51:42;;;;;;;6.35;2.70;;;14.70;94.20;;;;;;6311711;22;20336;-72
2023/08/30 09:54:21;;;;;;;7.20;2.60;;;14.70;94.20;;;;;;6310892;22;19999;-72
2023/08/30 09:56:52;;;;;;;4.38;2.08;;;14.60;94.10;;;;;;6338231;22;20007;-72
2023/08/30 09:59:19;;;;;;;8.98;2.53;;;14.60;94.20;;;;;;6338677;22;20033;-72
2023/08/30 10:01:53;;;;;;;4.32;1.95;;;14.60;94.20;;;;;;6310588;22;20437;-72
2023/08/30 10:04:21;;;;;;;8.30;2.10;;;14.50;94.20;;;;;;6312378;22;20364;-72
2023/08/30 10:06:48;;;;;;;5.65;2.20;;;14.60;94.30;;;;;;6338536;22;20068;-72
2023/08/30 10:09:17;;;;;;;4.18;2.22;;;14.60;94.20;;;;;;6310479;22;20003;-72
2023/08/30 10:11:44;;;;;;;3.90;2.10;;;14.60;94.00;;;;;;6338026;22;20009;-72
2023/08/30 10:14:11;;;;;;;5.93;2.25;;;14.60;94.00;;;;;;6285556;22;19994;-71
2023/08/30 10:16:45;;;;;;;2.60;1.90;;;14.60;94.00;;;;;;6338349;22;19999;-72
2023/08/30 10:19:20;;;;;;;4.05;2.30;;;14.60;94.00;;;;;;6338293;22;20384;-72
2023/08/30 10:21:54;;;;;;;4.30;2.10;;;14.50;93.70;;;;;;6338112;22;20025;-72
2023/08/30 10:24:21;;;;;;;3.28;2.13;;;14.60;94.00;;;;;;6310643;22;20082;-72
2023/08/30 10:26:48;;;;;;;6.57;2.20;;;14.60;93.90;;;;;;6310586;22;20464;-72
2023/08/30 10:29:16;;;;;;;3.47;2.00;;;14.60;94.10;;;;;;6310785;22;20001;-72
2023/08/30 10:31:43;;;;;;;2.70;1.88;;;14.60;94.30;;;;;;6285699;22;20026;-71
2023/08/30 10:34:16;;;;;;;1.92;1.73;;;14.60;94.20;;;;;;6310854;22;20368;-74
2023/08/30 10:36:46;;;;;;;4.18;1.88;;;14.60;94.10;;;;;;6310804;22;20376;-72
2023/08/30 10:39:14;;;;;;;3.05;1.73;;;14.60;94.30;;;;;;6285481;22;20003;-72
2023/08/30 10:41:57;;;;;;;2.15;1.67;;;14.60;94.30;;;;;;6311466;22;20007;-72
2023/08/30 10:44:24;;;;;;;2.78;1.70;;;14.60;94.20;;;;;;6338181;22;20007;-72
2023/08/30 10:46:55;;;;;;;3.40;1.70;;;14.50;93.90;;;;;;6337762;22;20003;-73
2023/08/30 10:49:23;;;;;;;2.25;1.70;;;14.50;93.90;;;;;;6337589;22;20437;-72
2023/08/30 10:52:01;;;;;;;4.57;1.80;;;14.50;93.90;;;;;;6338694;22;19995;-72
2023/08/30 10:54:40;;;;;;;3.47;1.70;;;14.50;93.90;;;;;;6311153;22;20359;-72
2023/08/30 10:57:14;;;;;;;2.03;1.50;;;14.50;93.90;;;;;;6338188;22;20003;-72
2023/08/30 10:59:42;;;;;;;2.80;1.60;;;14.50;93.40;;;;;;6284735;22;19995;-72
2023/08/30 11:02:11;;;;;;;4.57;1.42;;;14.50;93.50;;;;;;6285729;22;20022;-72
2023/08/30 11:04:41;;;;;;;1.85;1.60;;;14.50;93.50;;;;;;6310300;22;20034;-72
2023/08/30 11:07:08;;;;;;;1.83;1.33;;;14.60;93.50;;;;;;6338263;22;20322;-72
2023/08/30 11:09:39;;;;;;;6.22;1.92;;;14.60;93.40;;;;;;6310309;22;20006;-72
2023/08/30 11:12:06;;;;;;;4.30;1.77;;;14.60;93.40;;;;;;6310238;22;20055;-72
2023/08/30 11:14:34;;;;;;;2.55;1.58;;;14.60;92.70;;;;;;6337740;22;20010;-72
2023/08/30 11:17:01;;;;;;;3.63;1.70;;;14.60;92.90;;;;;;6338015;22;20006;-72
2023/08/30 11:19:31;;;;;;;6.03;1.67;;;14.60;92.90;;;;;;6310018;22;20002;-73
2023/08/30 11:21:58;;;;;;;1.77;1.37;;;14.60;93.00;;;;;;6337871;22;20464;-72
2023/08/30 11:24:25;;;;;;;1.85;1.25;;;14.60;92.90;;;;;;6310646;22;20082;-73
2023/08/30 11:26:56;;;;;;;2.75;1.38;;;14.60;92.80;;;;;;6310783;22;20010;-73
2023/08/30 11:29:22;;;;;;;;;;;14.60;92.70;;;;;;6311221;22;19994;-74
2023/08/30 11:31:50;;;;;;;4.28;1.63;;;14.60;92.80;;;;;;6337603;22;19936;-74
2023/08/30 11:34:20;;;;;;;2.22;1.50;;;14.60;92.90;;;;;;6284571;22;19999;-74
2023/08/30 11:36:47;;;;;;;2.27;1.83;;;14.60;92.90;;;;;;6311405;22;20002;-73
2023/08/30 11:39:14;;;;;;;2.17;1.60;;;14.60;92.90;;;;;;6337607;22;20078;-73
2023/08/30 11:41:42;;;;;;;1.80;1.50;;;14.60;93.10;;;;;;6310600;22;20060;-73
2023/08/30 11:44:09;;;;;;;1.63;1.52;;;14.70;93.20;;;;;;6284721;22;20436;-73
2023/08/30 11:46:36;;;;;;;3.00;1.58;;;14.70;92.90;;;;;;6310710;22;20003;-73
2023/08/30 11:49:03;;;;;;;2.40;1.58;;;14.70;93.10;;;;;;6337682;22;20010;-73
2023/08/30 11:51:31;;;;;;;2.78;1.55;;;14.70;93.20;;;;;;6310353;22;20078;-73
2023/08/30 11:53:58;;;;;;;1.73;1.48;;;14.70;93.20;;;;;;6309955;22;20509;-73
2023/08/30 11:56:25;;;;;;;4.03;1.80;;;14.70;93.30;;;;;;6310756;22;20010;-73
2023/08/30 11:58:52;;;;;;;2.67;1.55;;;14.70;92.90;;;;;;6337865;22;20001;-73
2023/08/30 12:01:20;;;;;;;3.53;1.60;;;14.70;92.80;;;;;;6337471;22;20007;-73
2023/08/30 12:03:50;;;;;;;1.83;1.50;;;14.70;92.60;;;;;;6337723;22;20003;-73
2023/08/30 12:06:17;;;;;;;4.22;1.40;;;14.60;92.00;;;;;;6337634;22;20445;-73
2023/08/30 12:08:44;;;;;;;1.83;1.50;;;14.50;92.20;;;;;;6337443;22;19999;-73
2023/08/30 12:11:31;;;;;;;2.40;1.42;;;14.60;92.50;;;;;;6337321;22;20010;-73
2023/08/30 12:14:07;;;;;;;3.20;1.60;;;14.50;92.40;;;;;;6311034;22;20014;-73
2023/08/30 12:16:34;;;;;;;2.42;1.52;;;14.60;92.80;;;;;;6337563;22;20051;-74
2023/08/30 12:19:14;;;;;;;3.25;1.55;;;14.60;92.60;;;;;;6309953;22;20006;-73
2023/08/30 12:21:42;;;;;;;3.53;1.70;;;14.60;92.70;;;;;;6279220;22;20057;-73
2023/08/30 12:24:10;;;;;;;2.28;1.55;;;14.60;92.50;;;;;;6279337;22;20303;-73
2023/08/30 12:26:38;;;;;;;2.45;1.55;;;14.60;92.10;;;;;;6307874;22;20007;-73
2023/08/30 12:29:09;;;;;;;2.25;1.50;;;14.60;92.10;;;;;;6307583;22;20003;-73
2023/08/30 12:31:37;;;;;;;2.85;1.63;;;14.60;91.80;;;;;;6307865;22;20003;-73
2023/08/30 12:34:04;;;;;;;1.98;1.70;;;14.60;92.40;;;;;;6308079;22;19996;-73
2023/08/30 12:36:31;;;;;;;2.08;1.70;;;14.60;92.40;;;;;;6308019;22;20056;-73
2023/08/30 12:38:59;;;;;;;1.85;1.73;;;14.60;92.60;;;;;;6307903;22;20422;-73
2023/08/30 12:41:26;;;;;;;3.05;1.85;;;14.70;92.90;;;;;;6281103;22;20003;-73
2023/08/30 12:43:54;;;;;;;2.67;1.83;;;14.60;92.40;;;;;;6281032;22;20007;-73
2023/08/30 12:46:21;;;;;;;3.88;1.90;;;14.60;92.20;;;;;;6307690;22;20599;-73
2023/08/30 12:48:48;;;;;;;3.85;1.98;;;14.70;92.60;;;;;;6307988;22;19999;-73
2023/08/30 12:51:15;;;;;;;4.38;2.33;;;14.70;92.70;;;;;;6307586;22;20006;-73
2023/08/30 12:53:43;;;;;;;4.13;2.13;;;14.70;92.90;;;;;;6307737;22;20078;-73
2023/08/30 12:56:10;;;;;;;7.53;2.38;;;14.70;92.80;;;;;;6307816;22;20011;-73
2023/08/30 12:58:37;;;;;;;4.65;2.22;;;14.60;92.50;;;;;;6307313;22;20007;-74
2023/08/30 13:01:04;;;;;;;5.32;2.40;;;14.60;92.10;;;;;;6307957;22;20082;-73
2023/08/30 13:03:31;;;;;;;3.65;2.17;;;14.60;92.50;;;;;;6307842;22;20088;-73
2023/08/30 13:05:59;;;;;;;4.93;2.40;;;14.60;92.90;;;;;;6307560;22;20057;-73
2023/08/30 13:08:26;;;;;;;4.93;1.98;;;14.60;92.80;;;;;;6307695;22;20299;-73
2023/08/30 13:10:53;;;;;;;2.85;2.13;;;14.60;92.60;;;;;;6280768;22;20010;-73
2023/08/30 13:13:21;;;;;;;4.78;2.10;;;14.60;92.80;;;;;;6307981;22;20034;-74
2023/08/30 13:15:48;;;;;;;4.28;1.90;;;14.50;92.50;;;;;;6307666;22;20026;-74
2023/08/30 13:18:16;;;;;;;3.00;1.90;;;14.50;92.70;;;;;;6307641;22;19999;-73
2023/08/30 13:20:43;;;;;;;2.78;1.92;;;14.60;92.90;;;;;;6256745;22;20069;-73
2023/08/30 13:23:10;;;;;;;2.63;1.80;;;14.50;92.60;;;;;;6311722;22;20010;-73
2023/08/30 13:25:41;;;;;;;2.95;1.90;;;14.50;92.40;;;;;;6311220;22;20311;-73
2023/08/30 13:28:08;;;;;;;3.20;2.00;;;14.50;92.20;;;;;;6338585;22;20389;-74
2023/08/30 13:30:35;;;;;;;2.38;1.88;;;14.50;92.10;;;;;;6338794;22;20491;-73
2023/08/30 13:33:03;;;;;;;1.90;1.65;;;14.40;92.30;;;;;;6338456;22;20003;-73